Baker, Florida
Current Conditions -  °F | °C
As of 5:53 PM on Saturday 25 Oct 2014 (Local Time) from KCEW Reporting Station
Clear Clear  
Wind Chill: 71°   Ceiling: Unl
Heat Index: 71°   Visibility: 10mi
Dew Point: 51°   Wind: 5mph
Humidity: 49%   Direction: 330°NNW
Pressure: 30.04"   Gusts: NA
Location:  30.8°N, 86.68°W
Report Text: KCEW 252253Z AUTO 33004KT 10SM CLR 22/11 A3004 RMK AO2 SLP172 T02170106
Loading
Personal Weather Stations






























Interactive Weather Map
Tropical Storm Tracking
New forecast layout! Learn more

10-Day Weather Forecast

Advertisements
Track Severe Weather on mobile